LIML/LIN METAR and TAF weather

Enter ICAO airport designator
Station Type Date Time Source
LIML METAR 2023/02/04 01:20 UTC NOAA

LIML 040120Z 26011KT CAVOK 08/05 Q1020 NOSIG


Station Type Date Time Source
LIML Decoded METAR 2023/02/04 01:20 UTC NOAA

Milano / Linate, Italy (LIML) 45-26N 009-17E 103M
Feb 03, 2023 - 08:20 PM EST / 2023.02.04 0120 UTC
Wind: from the W (260 degrees) at 13 MPH (11 KT):0
Visibility: greater than 7 mile(s):0
Temperature: 46 F (8 C)
Dew Point: 41 F (5 C)
Relative Humidity: 81%
Pressure (altimeter): 30.12 in. Hg (1020 hPa)
ob: LIML 040120Z 26011KT CAVOK 08/05 Q1020 NOSIG
cycle: 1

Station Type Date Time Source
LIML TAF 2023/02/03 18:21 UTC NOAA

TAF LIML 031700Z 0318/0418 27010KT 9999 FEW060
BECMG 0409/0411 33013KT
BECMG 0416/0418 07010KT

Example: see airport list